sensor_id;sensor_type;location;lat;lon;timestamp;pressure;altitude;pressure_sealevel;temperature;humidity
22964;BME280;11648;49.306;6.934;2024-01-11T00:00:47;99461.03;;;3.56;44.19
22964;BME280;11648;49.306;6.934;2024-01-11T00:03:14;99457.19;;;3.45;44.35
22964;BME280;11648;49.306;6.934;2024-01-11T00:05:41;99461.81;;;3.54;44.12
22964;BME280;11648;49.306;6.934;2024-01-11T00:08:10;99460.47;;;3.39;44.39
22964;BME280;11648;49.306;6.934;2024-01-11T00:10:37;99455.97;;;3.34;44.67
22964;BME280;11648;49.306;6.934;2024-01-11T00:13:04;99455.47;;;3.20;45.44
22964;BME280;11648;49.306;6.934;2024-01-11T00:15:31;99454.59;;;3.20;45.23
22964;BME280;11648;49.306;6.934;2024-01-11T00:17:58;99459.59;;;3.14;45.38
22964;BME280;11648;49.306;6.934;2024-01-11T00:20:25;99448.53;;;3.19;45.02
22964;BME280;11648;49.306;6.934;2024-01-11T00:22:52;99449.38;;;3.20;45.19
22964;BME280;11648;49.306;6.934;2024-01-11T00:25:19;99450.28;;;3.20;45.34
22964;BME280;11648;49.306;6.934;2024-01-11T00:27:46;99456.53;;;3.00;45.64
22964;BME280;11648;49.306;6.934;2024-01-11T00:30:13;99448.47;;;3.18;45.43
22964;BME280;11648;49.306;6.934;2024-01-11T00:32:40;99445.66;;;3.12;45.61
22964;BME280;11648;49.306;6.934;2024-01-11T00:35:07;99450.88;;;3.12;45.29
22964;BME280;11648;49.306;6.934;2024-01-11T00:37:34;99448.09;;;3.07;45.50
22964;BME280;11648;49.306;6.934;2024-01-11T00:40:01;99450.75;;;3.09;45.66
22964;BME280;11648;49.306;6.934;2024-01-11T00:42:27;99441.47;;;3.17;45.59
22964;BME280;11648;49.306;6.934;2024-01-11T00:44:55;99444.56;;;3.05;45.66
22964;BME280;11648;49.306;6.934;2024-01-11T00:47:22;99447.84;;;2.99;46.03
22964;BME280;11648;49.306;6.934;2024-01-11T00:49:49;99440.22;;;3.06;45.50
22964;BME280;11648;49.306;6.934;2024-01-11T00:52:16;99447.09;;;3.04;45.63
22964;BME280;11648;49.306;6.934;2024-01-11T00:54:43;99443.25;;;2.92;46.21
22964;BME280;11648;49.306;6.934;2024-01-11T00:57:10;99447.53;;;2.90;46.15
22964;BME280;11648;49.306;6.934;2024-01-11T00:59:37;99450.94;;;2.89;46.33
22964;BME280;11648;49.306;6.934;2024-01-11T01:02:04;99452.75;;;2.92;46.15
22964;BME280;11648;49.306;6.934;2024-01-11T01:04:30;99450.41;;;2.98;45.92
22964;BME280;11648;49.306;6.934;2024-01-11T01:06:58;99453.75;;;2.95;46.16
22964;BME280;11648;49.306;6.934;2024-01-11T01:09:24;99447.28;;;2.84;46.37
22964;BME280;11648;49.306;6.934;2024-01-11T01:11:51;99460.25;;;2.83;46.45
22964;BME280;11648;49.306;6.934;2024-01-11T01:14:18;99451.41;;;2.78;46.44
22964;BME280;11648;49.306;6.934;2024-01-11T01:16:45;99455.25;;;2.89;46.31
22964;BME280;11648;49.306;6.934;2024-01-11T01:19:12;99454.66;;;2.96;45.86
22964;BME280;11648;49.306;6.934;2024-01-11T01:21:39;99457.44;;;3.02;45.78
22964;BME280;11648;49.306;6.934;2024-01-11T01:24:06;99455.56;;;2.73;46.27
22964;BME280;11648;49.306;6.934;2024-01-11T01:26:32;99462.00;;;2.84;46.13
22964;BME280;11648;49.306;6.934;2024-01-11T01:29:00;99466.34;;;2.83;46.24
22964;BME280;11648;49.306;6.934;2024-01-11T01:31:27;99467.09;;;2.81;46.35
22964;BME280;11648;49.306;6.934;2024-01-11T01:33:55;99469.31;;;2.70;46.86
22964;BME280;11648;49.306;6.934;2024-01-11T01:36:22;99471.81;;;2.67;46.58
22964;BME280;11648;49.306;6.934;2024-01-11T01:38:48;99475.78;;;2.81;46.35
22964;BME280;11648;49.306;6.934;2024-01-11T01:41:15;99483.78;;;2.87;46.24
22964;BME280;11648;49.306;6.934;2024-01-11T01:43:42;99480.94;;;2.80;46.42
22964;BME280;11648;49.306;6.934;2024-01-11T01:46:09;99482.00;;;2.61;46.75
22964;BME280;11648;49.306;6.934;2024-01-11T01:48:36;99482.03;;;2.63;46.90
22964;BME280;11648;49.306;6.934;2024-01-11T01:51:05;99476.84;;;2.63;46.99
22964;BME280;11648;49.306;6.934;2024-01-11T01:53:33;99483.66;;;2.83;46.45
22964;BME280;11648;49.306;6.934;2024-01-11T01:56:01;99491.50;;;2.84;46.37
22964;BME280;11648;49.306;6.934;2024-01-11T01:58:28;99490.22;;;2.73;46.67
22964;BME280;11648;49.306;6.934;2024-01-11T02:00:56;99489.75;;;2.83;46.78
22964;BME280;11648;49.306;6.934;2024-01-11T02:03:26;99482.28;;;2.69;46.75
22964;BME280;11648;49.306;6.934;2024-01-11T02:05:54;99482.94;;;2.87;46.20
22964;BME280;11648;49.306;6.934;2024-01-11T02:08:22;99479.28;;;2.82;46.40
22964;BME280;11648;49.306;6.934;2024-01-11T02:10:51;99484.94;;;2.94;46.42
22964;BME280;11648;49.306;6.934;2024-01-11T02:13:18;99484.66;;;2.86;46.31
22964;BME280;11648;49.306;6.934;2024-01-11T02:15:46;99480.09;;;2.81;46.48
22964;BME280;11648;49.306;6.934;2024-01-11T02:18:13;99481.09;;;2.84;46.34
22964;BME280;11648;49.306;6.934;2024-01-11T02:20:40;99476.13;;;2.90;46.63
22964;BME280;11648;49.306;6.934;2024-01-11T02:23:14;99481.34;;;2.90;46.53
22964;BME280;11648;49.306;6.934;2024-01-11T02:25:41;99480.63;;;2.94;46.47
22964;BME280;11648;49.306;6.934;2024-01-11T02:28:08;99492.72;;;2.94;46.46
22964;BME280;11648;49.306;6.934;2024-01-11T02:30:35;99485.81;;;2.94;46.40
22964;BME280;11648;49.306;6.934;2024-01-11T02:33:03;99486.13;;;3.04;45.97
22964;BME280;11648;49.306;6.934;2024-01-11T02:35:31;99484.88;;;2.92;46.09
22964;BME280;11648;49.306;6.934;2024-01-11T02:37:59;99492.25;;;3.06;46.05
22964;BME280;11648;49.306;6.934;2024-01-11T02:40:28;99488.91;;;2.84;46.55
22964;BME280;11648;49.306;6.934;2024-01-11T02:42:55;99479.44;;;2.86;46.50
22964;BME280;11648;49.306;6.934;2024-01-11T02:45:22;99481.81;;;2.80;46.68
22964;BME280;11648;49.306;6.934;2024-01-11T02:47:49;99483.97;;;2.92;46.39
22964;BME280;11648;49.306;6.934;2024-01-11T02:50:16;99483.06;;;2.91;46.16
22964;BME280;11648;49.306;6.934;2024-01-11T02:52:43;99487.44;;;2.91;46.09
22964;BME280;11648;49.306;6.934;2024-01-11T02:55:10;99479.22;;;2.80;46.28
22964;BME280;11648;49.306;6.934;2024-01-11T02:57:37;99477.66;;;2.85;46.38
22964;BME280;11648;49.306;6.934;2024-01-11T03:00:04;99482.69;;;2.81;46.49
22964;BME280;11648;49.306;6.934;2024-01-11T03:02:32;99477.78;;;2.88;46.35
22964;BME280;11648;49.306;6.934;2024-01-11T03:04:59;99479.06;;;2.76;46.52
22964;BME280;11648;49.306;6.934;2024-01-11T03:07:26;99478.00;;;2.71;46.59
22964;BME280;11648;49.306;6.934;2024-01-11T03:09:53;99476.38;;;2.73;46.22
22964;BME280;11648;49.306;6.934;2024-01-11T03:12:20;99476.13;;;2.67;46.70
22964;BME280;11648;49.306;6.934;2024-01-11T03:14:47;99473.47;;;2.65;46.90
22964;BME280;11648;49.306;6.934;2024-01-11T03:17:14;99468.28;;;2.65;46.97
22964;BME280;11648;49.306;6.934;2024-01-11T03:19:41;99463.91;;;2.64;46.87
22964;BME280;11648;49.306;6.934;2024-01-11T03:22:08;99459.88;;;2.72;46.79
22964;BME280;11648;49.306;6.934;2024-01-11T03:24:38;99463.09;;;2.65;46.88
22964;BME280;11648;49.306;6.934;2024-01-11T03:27:08;99460.25;;;2.59;47.30
22964;BME280;11648;49.306;6.934;2024-01-11T03:29:35;99455.28;;;2.65;47.06
22964;BME280;11648;49.306;6.934;2024-01-11T03:32:02;99459.84;;;2.48;47.23
22964;BME280;11648;49.306;6.934;2024-01-11T03:34:29;99449.72;;;2.55;47.52
22964;BME280;11648;49.306;6.934;2024-01-11T03:36:56;99445.72;;;2.64;46.92
22964;BME280;11648;49.306;6.934;2024-01-11T03:39:25;99441.63;;;2.71;46.76
22964;BME280;11648;49.306;6.934;2024-01-11T03:41:52;99442.41;;;2.68;47.07
22964;BME280;11648;49.306;6.934;2024-01-11T03:44:19;99442.06;;;2.83;46.90
22964;BME280;11648;49.306;6.934;2024-01-11T03:46:46;99452.34;;;2.80;46.82
22964;BME280;11648;49.306;6.934;2024-01-11T03:49:13;99446.25;;;2.79;46.69
22964;BME280;11648;49.306;6.934;2024-01-11T03:51:40;99446.44;;;2.60;47.02
22964;BME280;11648;49.306;6.934;2024-01-11T03:54:07;99451.31;;;2.51;47.31
22964;BME280;11648;49.306;6.934;2024-01-11T03:56:37;99447.41;;;2.64;47.00
22964;BME280;11648;49.306;6.934;2024-01-11T03:59:05;99452.91;;;2.47;47.29
22964;BME280;11648;49.306;6.934;2024-01-11T04:01:33;99452.13;;;2.50;47.48
22964;BME280;11648;49.306;6.934;2024-01-11T04:04:00;99461.06;;;2.34;47.90
22964;BME280;11648;49.306;6.934;2024-01-11T04:06:26;99455.75;;;2.55;47.32
22964;BME280;11648;49.306;6.934;2024-01-11T04:08:53;99449.81;;;2.58;47.49
22964;BME280;11648;49.306;6.934;2024-01-11T04:11:21;99457.16;;;2.45;47.66
22964;BME280;11648;49.306;6.934;2024-01-11T04:13:48;99457.72;;;2.37;47.41
22964;BME280;11648;49.306;6.934;2024-01-11T04:16:15;99449.97;;;2.38;47.46
22964;BME280;11648;49.306;6.934;2024-01-11T04:18:42;99452.84;;;2.46;47.51
22964;BME280;11648;49.306;6.934;2024-01-11T04:21:20;99443.72;;;2.57;47.41
22964;BME280;11648;49.306;6.934;2024-01-11T04:23:48;99445.88;;;2.69;47.04
22964;BME280;11648;49.306;6.934;2024-01-11T04:26:14;99441.28;;;2.62;47.30
22964;BME280;11648;49.306;6.934;2024-01-11T04:28:41;99436.44;;;2.47;47.39
22964;BME280;11648;49.306;6.934;2024-01-11T04:31:08;99432.75;;;2.42;47.86
22964;BME280;11648;49.306;6.934;2024-01-11T04:33:35;99440.66;;;2.45;47.90
22964;BME280;11648;49.306;6.934;2024-01-11T04:36:02;99438.31;;;2.51;47.60
22964;BME280;11648;49.306;6.934;2024-01-11T04:38:29;99431.56;;;2.56;47.64
22964;BME280;11648;49.306;6.934;2024-01-11T04:40:56;99440.41;;;2.61;47.66
22964;BME280;11648;49.306;6.934;2024-01-11T04:43:23;99446.63;;;2.66;47.60
22964;BME280;11648;49.306;6.934;2024-01-11T04:45:49;99448.13;;;2.60;47.56
22964;BME280;11648;49.306;6.934;2024-01-11T04:48:16;99440.41;;;2.61;47.88
22964;BME280;11648;49.306;6.934;2024-01-11T04:50:44;99440.31;;;2.58;47.63
22964;BME280;11648;49.306;6.934;2024-01-11T04:53:11;99440.34;;;2.60;47.67
22964;BME280;11648;49.306;6.934;2024-01-11T04:55:38;99438.41;;;2.54;47.73
22964;BME280;11648;49.306;6.934;2024-01-11T04:58:05;99441.19;;;2.59;47.78
22964;BME280;11648;49.306;6.934;2024-01-11T05:00:31;99439.44;;;2.59;47.74
22964;BME280;11648;49.306;6.934;2024-01-11T05:02:58;99448.53;;;2.70;47.64
22964;BME280;11648;49.306;6.934;2024-01-11T05:05:25;99435.94;;;2.57;47.50
22964;BME280;11648;49.306;6.934;2024-01-11T05:07:52;99439.13;;;2.50;47.76
22964;BME280;11648;49.306;6.934;2024-01-11T05:10:19;99452.31;;;2.55;47.67
22964;BME280;11648;49.306;6.934;2024-01-11T05:12:46;99447.66;;;2.46;48.11
22964;BME280;11648;49.306;6.934;2024-01-11T05:15:12;99455.16;;;2.38;48.03
22964;BME280;11648;49.306;6.934;2024-01-11T05:17:39;99452.97;;;2.27;48.47
22964;BME280;11648;49.306;6.934;2024-01-11T05:20:07;99454.44;;;2.19;48.93
22964;BME280;11648;49.306;6.934;2024-01-11T05:22:34;99453.22;;;2.33;48.23
22964;BME280;11648;49.306;6.934;2024-01-11T05:25:01;99456.75;;;2.35;48.19
22964;BME280;11648;49.306;6.934;2024-01-11T05:27:28;99445.88;;;2.45;47.92
22964;BME280;11648;49.306;6.934;2024-01-11T05:29:55;99447.06;;;2.31;48.35
22964;BME280;11648;49.306;6.934;2024-01-11T05:32:22;99443.34;;;2.46;48.11
22964;BME280;11648;49.306;6.934;2024-01-11T05:34:49;99445.38;;;2.55;47.87
22964;BME280;11648;49.306;6.934;2024-01-11T05:37:16;99455.91;;;2.58;48.02
22964;BME280;11648;49.306;6.934;2024-01-11T05:39:43;99457.53;;;2.56;48.03
22964;BME280;11648;49.306;6.934;2024-01-11T05:42:09;99460.03;;;2.53;48.03
22964;BME280;11648;49.306;6.934;2024-01-11T05:44:36;99466.94;;;2.53;48.24
22964;BME280;11648;49.306;6.934;2024-01-11T05:47:03;99470.25;;;2.48;47.94
22964;BME280;11648;49.306;6.934;2024-01-11T05:49:30;99472.22;;;2.54;48.54
22964;BME280;11648;49.306;6.934;2024-01-11T05:51:57;99472.81;;;2.47;48.17
22964;BME280;11648;49.306;6.934;2024-01-11T05:54:24;99472.41;;;2.60;47.99
22964;BME280;11648;49.306;6.934;2024-01-11T05:56:53;99459.09;;;2.75;47.77
22964;BME280;11648;49.306;6.934;2024-01-11T05:59:22;99468.75;;;2.55;48.26
22964;BME280;11648;49.306;6.934;2024-01-11T06:01:49;99459.09;;;2.75;47.94
22964;BME280;11648;49.306;6.934;2024-01-11T06:04:16;99470.31;;;2.74;48.05
22964;BME280;11648;49.306;6.934;2024-01-11T06:06:43;99469.28;;;2.69;48.27
22964;BME280;11648;49.306;6.934;2024-01-11T06:09:10;99477.19;;;2.72;47.98
22964;BME280;11648;49.306;6.934;2024-01-11T06:11:36;99482.09;;;2.64;48.03
22964;BME280;11648;49.306;6.934;2024-01-11T06:14:03;99480.31;;;2.63;48.23
22964;BME280;11648;49.306;6.934;2024-01-11T06:16:30;99486.31;;;2.61;48.27
22964;BME280;11648;49.306;6.934;2024-01-11T06:18:57;99486.19;;;2.58;48.04
22964;BME280;11648;49.306;6.934;2024-01-11T06:21:24;99485.63;;;2.66;48.11
22964;BME280;11648;49.306;6.934;2024-01-11T06:23:51;99493.81;;;2.77;48.03
22964;BME280;11648;49.306;6.934;2024-01-11T06:26:18;99484.63;;;2.63;47.94
22964;BME280;11648;49.306;6.934;2024-01-11T06:28:45;99478.94;;;2.49;48.05
22964;BME280;11648;49.306;6.934;2024-01-11T06:31:12;99480.22;;;2.60;48.06
22964;BME280;11648;49.306;6.934;2024-01-11T06:33:39;99483.78;;;2.62;48.17
22964;BME280;11648;49.306;6.934;2024-01-11T06:36:06;99486.41;;;2.64;48.34
22964;BME280;11648;49.306;6.934;2024-01-11T06:38:34;99485.09;;;2.75;48.15
22964;BME280;11648;49.306;6.934;2024-01-11T06:41:01;99494.28;;;2.65;48.09
22964;BME280;11648;49.306;6.934;2024-01-11T06:43:28;99496.53;;;2.56;48.30
22964;BME280;11648;49.306;6.934;2024-01-11T06:45:55;99494.03;;;2.59;48.48
22964;BME280;11648;49.306;6.934;2024-01-11T06:48:22;99496.00;;;2.65;48.21
22964;BME280;11648;49.306;6.934;2024-01-11T06:50:49;99506.22;;;2.60;48.65
22964;BME280;11648;49.306;6.934;2024-01-11T06:53:16;99504.69;;;2.65;48.35
22964;BME280;11648;49.306;6.934;2024-01-11T06:55:43;99504.69;;;2.65;48.14
22964;BME280;11648;49.306;6.934;2024-01-11T06:58:11;99519.56;;;2.69;48.34
22964;BME280;11648;49.306;6.934;2024-01-11T07:00:37;99517.88;;;2.71;47.61
22964;BME280;11648;49.306;6.934;2024-01-11T07:03:09;99516.19;;;2.72;47.89
22964;BME280;11648;49.306;6.934;2024-01-11T07:05:37;99527.50;;;2.74;47.62
22964;BME280;11648;49.306;6.934;2024-01-11T07:08:04;99527.41;;;2.48;48.36
22964;BME280;11648;49.306;6.934;2024-01-11T07:10:31;99535.69;;;2.61;48.25
22964;BME280;11648;49.306;6.934;2024-01-11T07:12:58;99546.56;;;2.51;48.12
22964;BME280;11648;49.306;6.934;2024-01-11T07:15:25;99548.47;;;2.32;48.13
22964;BME280;11648;49.306;6.934;2024-01-11T07:17:52;99560.09;;;2.42;48.13
22964;BME280;11648;49.306;6.934;2024-01-11T07:20:20;99565.53;;;2.26;48.52
22964;BME280;11648;49.306;6.934;2024-01-11T07:22:47;99563.03;;;2.07;48.77
22964;BME280;11648;49.306;6.934;2024-01-11T07:25:14;99560.19;;;2.23;48.75
22964;BME280;11648;49.306;6.934;2024-01-11T07:27:40;99561.97;;;2.24;49.43
22964;BME280;11648;49.306;6.934;2024-01-11T07:30:09;99560.88;;;2.39;48.69
22964;BME280;11648;49.306;6.934;2024-01-11T07:32:36;99566.19;;;2.42;48.89
22964;BME280;11648;49.306;6.934;2024-01-11T07:35:04;99560.59;;;2.56;49.34
22964;BME280;11648;49.306;6.934;2024-01-11T07:37:39;99568.06;;;2.69;48.88
22964;BME280;11648;49.306;6.934;2024-01-11T07:40:06;99568.50;;;2.81;48.69
22964;BME280;11648;49.306;6.934;2024-01-11T07:42:38;99576.59;;;2.88;48.57
22964;BME280;11648;49.306;6.934;2024-01-11T07:45:08;99580.25;;;2.93;48.50
22964;BME280;11648;49.306;6.934;2024-01-11T07:47:37;99571.75;;;2.97;48.48
22964;BME280;11648;49.306;6.934;2024-01-11T07:50:07;99570.47;;;3.10;48.09
22964;BME280;11648;49.306;6.934;2024-01-11T07:52:36;99573.13;;;3.12;48.00
22964;BME280;11648;49.306;6.934;2024-01-11T07:55:04;99568.97;;;3.17;48.30
22964;BME280;11648;49.306;6.934;2024-01-11T07:57:34;99573.41;;;3.19;48.00
22964;BME280;11648;49.306;6.934;2024-01-11T08:00:02;99578.91;;;3.27;48.27
22964;BME280;11648;49.306;6.934;2024-01-11T08:02:38;99574.91;;;3.38;48.16
22964;BME280;11648;49.306;6.934;2024-01-11T08:05:06;99565.84;;;3.51;48.11
22964;BME280;11648;49.306;6.934;2024-01-11T08:07:34;99566.13;;;3.60;47.84
22964;BME280;11648;49.306;6.934;2024-01-11T08:10:02;99573.56;;;3.73;47.69
22964;BME280;11648;49.306;6.934;2024-01-11T08:12:30;99567.72;;;3.80;47.65
22964;BME280;11648;49.306;6.934;2024-01-11T08:14:57;99571.75;;;3.97;47.27
22964;BME280;11648;49.306;6.934;2024-01-11T08:17:24;99575.16;;;4.21;47.06
22964;BME280;11648;49.306;6.934;2024-01-11T08:19:51;99561.81;;;4.39;46.78
22964;BME280;11648;49.306;6.934;2024-01-11T08:22:18;99558.19;;;4.62;46.62
22964;BME280;11648;49.306;6.934;2024-01-11T08:24:45;99556.88;;;4.76;45.65
22964;BME280;11648;49.306;6.934;2024-01-11T08:27:11;99556.13;;;4.80;45.87
22964;BME280;11648;49.306;6.934;2024-01-11T08:29:38;99561.97;;;5.02;45.25
22964;BME280;11648;49.306;6.934;2024-01-11T08:32:07;99556.38;;;5.19;45.29
22964;BME280;11648;49.306;6.934;2024-01-11T08:34:54;99544.44;;;5.60;43.65
22964;BME280;11648;49.306;6.934;2024-01-11T08:37:21;99539.78;;;5.83;43.60
22964;BME280;11648;49.306;6.934;2024-01-11T08:39:47;99548.72;;;5.91;43.18
22964;BME280;11648;49.306;6.934;2024-01-11T08:42:15;99549.56;;;5.88;42.23
22964;BME280;11648;49.306;6.934;2024-01-11T08:44:42;99540.25;;;6.00;42.51
22964;BME280;11648;49.306;6.934;2024-01-11T08:47:09;99548.22;;;6.06;42.54
22964;BME280;11648;49.306;6.934;2024-01-11T08:49:38;99549.75;;;5.97;41.83
22964;BME280;11648;49.306;6.934;2024-01-11T08:52:06;99547.84;;;5.90;42.25
22964;BME280;11648;49.306;6.934;2024-01-11T08:54:33;99546.38;;;5.69;42.72
22964;BME280;11648;49.306;6.934;2024-01-11T08:57:00;99559.84;;;5.50;43.71
22964;BME280;11648;49.306;6.934;2024-01-11T08:59:27;99571.88;;;5.46;43.78
22964;BME280;11648;49.306;6.934;2024-01-11T09:01:54;99573.50;;;5.41;44.12
22964;BME280;11648;49.306;6.934;2024-01-11T09:04:36;99567.47;;;5.43;43.82
22964;BME280;11648;49.306;6.934;2024-01-11T09:07:03;99568.97;;;5.34;44.26
22964;BME280;11648;49.306;6.934;2024-01-11T09:09:30;99575.84;;;5.32;45.12
22964;BME280;11648;49.306;6.934;2024-01-11T09:12:04;99570.28;;;5.50;44.37
22964;BME280;11648;49.306;6.934;2024-01-11T09:14:31;99579.16;;;5.58;43.85
22964;BME280;11648;49.306;6.934;2024-01-11T09:16:58;99577.66;;;5.66;43.79
22964;BME280;11648;49.306;6.934;2024-01-11T09:19:25;99575.19;;;5.70;44.38
22964;BME280;11648;49.306;6.934;2024-01-11T09:21:52;99564.94;;;5.79;43.81
22964;BME280;11648;49.306;6.934;2024-01-11T09:24:19;99557.94;;;5.78;44.34
22964;BME280;11648;49.306;6.934;2024-01-11T09:26:46;99557.09;;;5.79;44.29
22964;BME280;11648;49.306;6.934;2024-01-11T09:29:13;99551.34;;;5.91;43.94
22964;BME280;11648;49.306;6.934;2024-01-11T09:31:39;99563.84;;;5.71;44.11
22964;BME280;11648;49.306;6.934;2024-01-11T09:34:06;99563.41;;;5.86;43.69
22964;BME280;11648;49.306;6.934;2024-01-11T09:36:34;99568.81;;;5.92;44.24
22964;BME280;11648;49.306;6.934;2024-01-11T09:39:01;99570.91;;;6.07;43.97
22964;BME280;11648;49.306;6.934;2024-01-11T09:41:29;99569.25;;;6.10;43.88
22964;BME280;11648;49.306;6.934;2024-01-11T09:44:00;99573.63;;;6.11;43.68
22964;BME280;11648;49.306;6.934;2024-01-11T09:46:27;99565.19;;;6.23;43.78
22964;BME280;11648;49.306;6.934;2024-01-11T09:48:55;99576.94;;;6.40;43.61
22964;BME280;11648;49.306;6.934;2024-01-11T09:51:22;99572.38;;;6.31;43.06
22964;BME280;11648;49.306;6.934;2024-01-11T09:53:50;99571.75;;;6.41;43.30
22964;BME280;11648;49.306;6.934;2024-01-11T09:56:18;99576.84;;;6.35;43.07
22964;BME280;11648;49.306;6.934;2024-01-11T09:58:47;99580.69;;;6.51;43.34
22964;BME280;11648;49.306;6.934;2024-01-11T10:01:16;99580.28;;;6.72;42.51
22964;BME280;11648;49.306;6.934;2024-01-11T10:03:44;99577.28;;;6.55;43.39
22964;BME280;11648;49.306;6.934;2024-01-11T10:06:13;99583.06;;;6.79;43.03
22964;BME280;11648;49.306;6.934;2024-01-11T10:08:40;99578.28;;;6.99;42.57
22964;BME280;11648;49.306;6.934;2024-01-11T10:11:07;99571.75;;;6.79;42.75
22964;BME280;11648;49.306;6.934;2024-01-11T10:13:35;99571.66;;;6.76;42.48
22964;BME280;11648;49.306;6.934;2024-01-11T10:16:11;99576.66;;;7.06;41.45
22964;BME280;11648;49.306;6.934;2024-01-11T10:18:42;99566.91;;;7.42;40.94
22964;BME280;11648;49.306;6.934;2024-01-11T10:21:09;99564.50;;;7.53;40.79
22964;BME280;11648;49.306;6.934;2024-01-11T10:23:36;99563.63;;;8.00;40.13
22964;BME280;11648;49.306;6.934;2024-01-11T10:26:04;99553.63;;;8.30;39.74
22964;BME280;11648;49.306;6.934;2024-01-11T10:28:31;99557.31;;;8.40;39.23
22964;BME280;11648;49.306;6.934;2024-01-11T10:30:58;99557.22;;;8.35;39.12
22964;BME280;11648;49.306;6.934;2024-01-11T10:33:25;99558.91;;;8.92;38.55
22964;BME280;11648;49.306;6.934;2024-01-11T10:35:53;99550.72;;;9.38;37.77
22964;BME280;11648;49.306;6.934;2024-01-11T10:38:21;99543.88;;;9.56;36.12
22964;BME280;11648;49.306;6.934;2024-01-11T10:40:49;99536.31;;;11.17;34.37
22964;BME280;11648;49.306;6.934;2024-01-11T10:43:19;99517.22;;;14.13;31.18
22964;BME280;11648;49.306;6.934;2024-01-11T10:45:52;99504.41;;;16.99;26.66
22964;BME280;11648;49.306;6.934;2024-01-11T10:48:25;99486.09;;;19.63;23.97
22964;BME280;11648;49.306;6.934;2024-01-11T10:51:00;99476.38;;;21.17;21.87
22964;BME280;11648;49.306;6.934;2024-01-11T10:53:47;99464.19;;;23.97;19.14
22964;BME280;11648;49.306;6.934;2024-01-11T10:56:15;99456.13;;;24.68;18.67
22964;BME280;11648;49.306;6.934;2024-01-11T10:58:46;99459.22;;;24.60;17.96
22964;BME280;11648;49.306;6.934;2024-01-11T11:01:16;99449.03;;;25.81;16.94
22964;BME280;11648;49.306;6.934;2024-01-11T11:03:43;99449.53;;;26.48;16.40
22964;BME280;11648;49.306;6.934;2024-01-11T11:06:11;99435.13;;;26.34;16.58
22964;BME280;11648;49.306;6.934;2024-01-11T11:08:40;99432.38;;;26.20;16.15
22964;BME280;11648;49.306;6.934;2024-01-11T11:11:08;99430.78;;;25.22;16.89
22964;BME280;11648;49.306;6.934;2024-01-11T11:13:36;99433.31;;;24.23;16.86
22964;BME280;11648;49.306;6.934;2024-01-11T11:16:05;99430.69;;;23.11;17.87
22964;BME280;11648;49.306;6.934;2024-01-11T11:18:33;99432.03;;;23.77;17.94
22964;BME280;11648;49.306;6.934;2024-01-11T11:21:09;99434.88;;;21.95;19.05
22964;BME280;11648;49.306;6.934;2024-01-11T11:23:37;99451.16;;;22.12;18.59
22964;BME280;11648;49.306;6.934;2024-01-11T11:26:06;99453.03;;;21.44;19.09
22964;BME280;11648;49.306;6.934;2024-01-11T11:28:38;99464.56;;;21.46;19.20
22964;BME280;11648;49.306;6.934;2024-01-11T11:31:04;99469.41;;;23.82;17.83
22964;BME280;11648;49.306;6.934;2024-01-11T11:33:31;99469.31;;;23.66;17.81
22964;BME280;11648;49.306;6.934;2024-01-11T11:35:59;99454.69;;;24.95;17.40
22964;BME280;11648;49.306;6.934;2024-01-11T11:38:28;99436.03;;;25.87;16.42
22964;BME280;11648;49.306;6.934;2024-01-11T11:40:58;99426.13;;;26.63;15.50
22964;BME280;11648;49.306;6.934;2024-01-11T11:43:29;99413.00;;;25.02;16.00
22964;BME280;11648;49.306;6.934;2024-01-11T11:45:56;99417.84;;;23.36;17.31
22964;BME280;11648;49.306;6.934;2024-01-11T11:51:09;99429.56;;;24.94;15.87
22964;BME280;11648;49.306;6.934;2024-01-11T11:53:43;99416.34;;;24.73;16.16
22964;BME280;11648;49.306;6.934;2024-01-11T11:56:10;99424.19;;;25.43;15.92
22964;BME280;11648;49.306;6.934;2024-01-11T11:58:38;99429.81;;;24.90;15.63
22964;BME280;11648;49.306;6.934;2024-01-11T12:01:07;99432.28;;;26.21;15.27
22964;BME280;11648;49.306;6.934;2024-01-11T12:03:40;99428.53;;;26.97;14.68
22964;BME280;11648;49.306;6.934;2024-01-11T12:06:09;99431.50;;;26.19;15.59
22964;BME280;11648;49.306;6.934;2024-01-11T12:08:41;99437.09;;;26.00;15.25
22964;BME280;11648;49.306;6.934;2024-01-11T12:11:08;99431.34;;;26.22;15.16
22964;BME280;11648;49.306;6.934;2024-01-11T12:13:36;99411.53;;;26.51;15.34
22964;BME280;11648;49.306;6.934;2024-01-11T12:16:03;99410.09;;;27.04;14.42
22964;BME280;11648;49.306;6.934;2024-01-11T12:18:30;99408.97;;;25.89;14.99
22964;BME280;11648;49.306;6.934;2024-01-11T12:20:57;99401.72;;;26.50;15.06
22964;BME280;11648;49.306;6.934;2024-01-11T12:23:24;99403.72;;;26.47;14.86
22964;BME280;11648;49.306;6.934;2024-01-11T12:25:51;99406.91;;;25.63;15.11
22964;BME280;11648;49.306;6.934;2024-01-11T12:28:18;99406.88;;;24.48;15.98
22964;BME280;11648;49.306;6.934;2024-01-11T12:30:45;99415.38;;;24.05;16.58
22964;BME280;11648;49.306;6.934;2024-01-11T12:33:13;99412.59;;;23.14;17.10
22964;BME280;11648;49.306;6.934;2024-01-11T12:35:40;99437.59;;;21.72;18.34
22964;BME280;11648;49.306;6.934;2024-01-11T12:38:07;99439.41;;;20.79;18.18
22964;BME280;11648;49.306;6.934;2024-01-11T12:40:36;99434.41;;;19.07;20.17
22964;BME280;11648;49.306;6.934;2024-01-11T12:43:07;99447.50;;;18.18;21.27
22964;BME280;11648;49.306;6.934;2024-01-11T12:45:35;99443.91;;;16.64;23.08
22964;BME280;11648;49.306;6.934;2024-01-11T12:48:02;99456.75;;;15.89;23.69
22964;BME280;11648;49.306;6.934;2024-01-11T12:50:31;99466.47;;;14.61;25.20
22964;BME280;11648;49.306;6.934;2024-01-11T12:53:19;99464.75;;;13.52;26.40
22964;BME280;11648;49.306;6.934;2024-01-11T12:55:47;99468.56;;;13.00;27.25
22964;BME280;11648;49.306;6.934;2024-01-11T12:58:24;99464.38;;;12.35;27.83
22964;BME280;11648;49.306;6.934;2024-01-11T13:00:53;99468.81;;;11.81;29.02
22964;BME280;11648;49.306;6.934;2024-01-11T13:03:20;99467.88;;;11.42;29.31
22964;BME280;11648;49.306;6.934;2024-01-11T13:05:47;99473.16;;;11.64;29.20
22964;BME280;11648;49.306;6.934;2024-01-11T13:08:15;99480.97;;;11.16;30.15
22964;BME280;11648;49.306;6.934;2024-01-11T13:10:46;99473.97;;;11.16;29.78
22964;BME280;11648;49.306;6.934;2024-01-11T13:13:15;99480.94;;;10.99;30.19
22964;BME280;11648;49.306;6.934;2024-01-11T13:15:42;99486.13;;;10.87;30.67